Identifier: KMEV

AWOS Phone: 775-782-6264

AWOS Radio Freq: 119.325

Latitude: 39.00000000

Longitude: -119.75190000

Current Conditions

Updated: 4:43 PM GMT on 15 Nov 2018

  • Wind Speed (2min):
    CALM
  • Wind Direction (2min):
  • Temperature (10min):
    -1 Celsius
  • Dew Point (10min):
    -15 Celsius
  • Humidity:
    35 Percent
  • Altimeter:
    30.34 inHG
  • Density Altitude:
  • Visibility:
    10 Miles
  • Clouds:
    CLR
  • Rainfall Current Hour:
    0 Inches
METAR: METAR KMEV 151640Z AUTO 00000KT 10SM CLR M01/M15 A3034 RMK AO2